Time;durP1;ratioP1;P1;durP2;ratioP2;P2;SDS_P1;SDS_P2;PMS_P1;PMS_P2;Temp;Humidity;BMP_temperature;BMP_pressure;BME280_temperature;BME280_humidity;BME280_pressure;Samples;Min_cycle;Max_cycle;Signal;HPM_P1;HPM_P2
2022/09/06 00:02:18;;;;;;;11.18;9.13;;;;;;;11.43;71.79;97864.87;1713010;83;25688;-86
2022/09/06 00:04:44;;;;;;;12.43;9.15;;;;;;;11.42;71.77;97864.55;1713189;83;26321;-86
2022/09/06 00:07:10;;;;;;;11.80;9.23;;;;;;;11.35;71.83;97865.07;1712944;83;25662;-86
2022/09/06 00:09:37;;;;;;;12.40;9.00;;;;;;;11.34;71.87;97862.05;1713269;82;27441;-86
2022/09/06 00:12:04;;;;;;;15.58;9.03;;;;;;;11.32;71.83;97856.84;1706982;83;25811;-86
2022/09/06 00:14:31;;;;;;;12.53;9.43;;;;;;;11.28;71.92;97857.45;1738729;82;25855;-86
2022/09/06 00:16:57;;;;;;;13.48;8.85;;;;;;;11.28;72.01;97854.75;1732624;82;25781;-86
2022/09/06 00:19:24;;;;;;;12.98;8.83;;;;;;;11.29;72.00;97856.42;1670731;83;25216;-85
2022/09/06 00:21:50;;;;;;;12.03;8.43;;;;;;;11.28;72.00;97850.70;1713071;83;27418;-86
2022/09/06 00:24:17;;;;;;;13.22;8.40;;;;;;;11.25;72.04;97856.50;1679877;83;25905;-86
2022/09/06 00:26:43;;;;;;;12.18;8.83;;;;;;;11.22;72.11;97858.28;1687350;83;25727;-86
2022/09/06 00:29:10;;;;;;;9.38;7.55;;;;;;;11.21;72.16;97860.67;1679625;82;25754;-86
2022/09/06 00:31:36;;;;;;;10.72;7.70;;;;;;;11.18;72.21;97860.03;1701266;83;25864;-86
2022/09/06 00:34:03;;;;;;;10.18;8.03;;;;;;;11.16;72.21;97859.92;1715160;82;28024;-85
2022/09/06 00:36:30;;;;;;;10.75;8.48;;;;;;;11.14;72.27;97861.47;1686503;83;25733;-86
2022/09/06 00:38:57;;;;;;;13.38;8.25;;;;;;;11.12;72.32;97858.13;1724666;82;25697;-85
2022/09/06 00:41:24;;;;;;;11.70;7.30;;;;;;;11.06;72.28;97858.97;1723988;82;26515;-86
2022/09/06 00:43:50;;;;;;;9.18;6.95;;;;;;;10.97;72.30;97858.84;1702461;82;26658;-86
2022/09/06 00:46:22;;;;;;;9.63;6.97;;;;;;;10.96;72.45;97858.52;1665479;84;27360;-86
2022/09/06 00:48:52;;;;;;;8.93;6.95;;;;;;;10.96;72.50;97854.47;1670904;82;25725;-86
2022/09/06 00:51:21;;;;;;;9.13;6.37;;;;;;;10.95;72.55;97847.40;1717635;82;25763;-86
2022/09/06 00:53:49;;;;;;;8.83;6.75;;;;;;;10.95;72.58;97852.80;1678280;82;25768;-85
2022/09/06 00:56:15;;;;;;;12.43;6.05;;;;;;;10.97;72.62;97855.30;1695826;82;25955;-85
2022/09/06 00:58:42;;;;;;;8.80;6.17;;;;;;;10.97;72.64;97853.44;1713193;81;28149;-85
2022/09/06 01:01:08;;;;;;;8.28;6.60;;;;;;;10.97;72.58;97857.48;1675715;83;25806;-86
2022/09/06 01:03:36;;;;;;;9.70;6.55;;;;;;;10.97;72.50;97856.14;1730505;81;25752;-86
2022/09/06 01:06:11;;;;;;;14.60;6.62;;;;;;;10.97;72.51;97859.36;1741429;81;26548;-86
2022/09/06 01:08:49;;;;;;;9.70;6.22;;;;;;;10.96;72.55;97860.39;1743620;82;25723;-85
2022/09/06 01:11:56;;;;;;;8.83;6.72;;;;;;;10.89;72.44;97859.00;1705604;82;27360;-86
2022/09/06 01:15:06;;;;;;;8.25;6.12;;;;;;;10.85;72.54;97858.27;1689353;82;25676;-84
2022/09/06 01:18:11;;;;;;;8.65;6.00;;;;;;;10.81;72.62;97852.44;1727827;82;25931;-85
2022/09/06 01:21:02;;;;;;;9.05;5.72;;;;;;;10.80;72.68;97868.31;1702412;82;25873;-85
2022/09/06 01:23:54;;;;;;;9.20;6.35;;;;;;;10.76;72.71;97865.69;1715524;81;25716;-85
2022/09/06 01:26:36;;;;;;;;;;;;;;;10.75;72.78;97861.33;1725665;83;28421;-85
2022/09/06 01:29:28;;;;;;;7.05;5.83;;;;;;;10.74;73.15;97863.73;1738938;81;25752;-85
2022/09/06 01:32:15;;;;;;;11.60;6.85;;;;;;;10.72;73.04;97870.69;1714032;81;25774;-85
2022/09/06 01:34:50;;;;;;;10.28;6.30;;;;;;;10.70;73.12;97861.95;1727956;81;25837;-85
2022/09/06 01:37:20;;;;;;;8.25;5.95;;;;;;;10.71;73.11;97858.22;1748059;81;25908;-86
2022/09/06 01:39:46;;;;;;;16.80;6.78;;;;;;;10.69;73.21;97864.84;1702692;80;28265;-86
2022/09/06 01:42:26;;;;;;;11.12;5.92;;;;;;;10.72;73.30;97869.85;1733272;81;25757;-86
2022/09/06 01:44:59;;;;;;;10.23;6.30;;;;;;;10.75;73.36;97866.73;1748723;81;25725;-86
2022/09/06 01:48:08;;;;;;;8.23;5.92;;;;;;;10.74;73.39;97863.73;1719928;81;25817;-87
2022/09/06 01:50:59;;;;;;;7.10;5.17;;;;;;;10.68;73.47;97860.48;1749519;81;25668;-86
2022/09/06 01:53:40;;;;;;;11.80;5.55;;;;;;;10.68;73.52;97863.17;1666131;83;27464;-86
2022/09/06 01:56:34;;;;;;;8.25;5.85;;;;;;;10.64;73.60;97847.89;1676306;84;25896;-86
2022/09/06 01:59:09;;;;;;;7.60;5.83;;;;;;;10.61;73.63;97851.53;1663576;84;25960;-86
2022/09/06 02:01:49;;;;;;;10.43;6.42;;;;;;;10.61;73.66;97859.63;1685201;83;25848;-86
2022/09/06 02:04:20;;;;;;;11.88;6.95;;;;;;;10.63;73.61;97851.61;1701719;84;26473;-85
2022/09/06 02:07:00;;;;;;;8.53;6.67;;;;;;;10.64;73.62;97853.80;1677724;84;27220;-85
2022/09/06 02:09:31;;;;;;;11.50;5.65;;;;;;;10.63;73.63;97855.67;1701569;84;25895;-85
2022/09/06 02:12:00;;;;;;;10.05;6.20;;;;;;;10.62;73.65;97855.38;1701252;84;25312;-85
2022/09/06 02:14:35;;;;;;;9.73;6.45;;;;;;;10.61;73.62;97860.98;1694194;83;26337;-85
2022/09/06 02:17:04;;;;;;;7.33;5.80;;;;;;;10.58;73.62;97867.60;1701412;84;25544;-85
2022/09/06 02:19:45;;;;;;;7.22;5.60;;;;;;;10.53;73.71;97861.95;1701768;84;27504;-86
2022/09/06 02:22:16;;;;;;;8.13;5.67;;;;;;;10.55;73.78;97860.41;1700673;84;25866;-86
2022/09/06 02:24:46;;;;;;;9.05;5.42;;;;;;;10.56;73.93;97858.03;1679975;84;25732;-86
2022/09/06 02:27:13;;;;;;;9.55;6.33;;;;;;;10.55;73.98;97863.11;1681410;84;25879;-86
2022/09/06 02:29:40;;;;;;;9.78;6.30;;;;;;;10.56;73.97;97856.16;1680757;84;25795;-85
2022/09/06 02:32:17;;;;;;;8.20;6.37;;;;;;;10.56;74.08;97853.98;1738063;82;27360;-84
2022/09/06 02:34:45;;;;;;;9.98;6.50;;;;;;;10.57;74.10;97838.10;1746695;81;26457;-84
2022/09/06 02:37:15;;;;;;;9.33;5.90;;;;;;;10.60;74.11;97839.06;1746021;81;25723;-83
2022/09/06 02:39:42;;;;;;;11.68;6.00;;;;;;;10.59;74.16;97840.92;1704482;81;25802;-83
2022/09/06 02:42:11;;;;;;;10.35;6.17;;;;;;;10.54;74.02;97846.08;1741817;81;25691;-84
2022/09/06 02:44:37;;;;;;;10.10;6.45;;;;;;;10.54;74.06;97843.89;1748077;81;28125;-84
2022/09/06 02:47:04;;;;;;;9.78;6.37;;;;;;;10.49;74.00;97836.93;1748675;81;25740;-84
2022/09/06 02:49:32;;;;;;;12.40;5.75;;;;;;;10.46;74.15;97844.91;1748661;81;25243;-85
2022/09/06 02:51:58;;;;;;;11.63;6.28;;;;;;;10.46;74.10;97838.16;1717791;82;25738;-84
2022/09/06 02:54:25;;;;;;;8.60;6.03;;;;;;;10.48;74.16;97838.80;1713372;82;25725;-84
2022/09/06 02:56:51;;;;;;;10.53;5.70;;;;;;;10.49;74.21;97837.77;1741479;81;27414;-84
2022/09/06 02:59:18;;;;;;;8.93;5.55;;;;;;;10.50;74.21;97838.60;1742723;82;25737;-84
2022/09/06 03:01:44;;;;;;;7.25;5.40;;;;;;;10.49;74.11;97851.78;1714665;83;25253;-84
2022/09/06 03:04:11;;;;;;;9.15;6.42;;;;;;;10.45;74.12;97848.12;1741240;82;25758;-84
2022/09/06 03:06:37;;;;;;;6.60;5.67;;;;;;;10.39;74.19;97835.41;1741526;82;25889;-84
2022/09/06 03:09:04;;;;;;;8.33;5.45;;;;;;;10.41;74.32;97836.05;1700120;82;27960;-85
2022/09/06 03:11:30;;;;;;;8.00;6.05;;;;;;;10.42;74.35;97827.44;1709033;83;25485;-84
2022/09/06 03:13:57;;;;;;;8.73;5.72;;;;;;;10.43;74.34;97830.45;1714048;83;25734;-84
2022/09/06 03:16:23;;;;;;;9.33;5.70;;;;;;;10.39;74.37;97834.06;1727577;81;26515;-84
2022/09/06 03:18:50;;;;;;;7.72;6.03;;;;;;;10.37;74.46;97832.11;1713976;81;25931;-85
2022/09/06 03:21:16;;;;;;;9.40;6.37;;;;;;;10.38;74.48;97830.23;1718584;82;28025;-85
2022/09/06 03:23:44;;;;;;;8.98;6.20;;;;;;;10.39;74.58;97835.92;1723020;82;26437;-84
2022/09/06 03:26:11;;;;;;;9.28;6.15;;;;;;;10.38;74.64;97830.23;1741424;81;25723;-85
2022/09/06 03:28:38;;;;;;;8.25;6.10;;;;;;;10.38;74.55;97831.08;1741832;81;26395;-84
2022/09/06 03:31:05;;;;;;;9.30;6.00;;;;;;;10.37;74.61;97832.11;1741667;81;26269;-85
2022/09/06 03:33:31;;;;;;;10.15;5.92;;;;;;;10.38;74.61;97831.08;1743589;82;28018;-85
2022/09/06 03:36:00;;;;;;;9.08;6.85;;;;;;;10.40;74.68;97834.38;1741529;81;25886;-85
2022/09/06 03:38:28;;;;;;;7.92;6.03;;;;;;;10.38;74.74;97826.19;1741846;81;25760;-85
2022/09/06 03:40:55;;;;;;;11.65;6.22;;;;;;;10.36;74.82;97827.73;1714367;81;25685;-85
2022/09/06 03:43:24;;;;;;;10.00;5.87;;;;;;;10.39;74.91;97830.52;1682012;82;25908;-84
2022/09/06 03:45:56;;;;;;;14.65;6.67;;;;;;;10.41;74.93;97834.70;1723560;81;28058;-84
2022/09/06 03:48:25;;;;;;;14.18;6.85;;;;;;;10.43;74.91;97840.73;1704732;82;25948;-83
2022/09/06 03:50:55;;;;;;;10.68;6.78;;;;;;;10.44;75.08;97832.95;1743597;82;25819;-84
2022/09/06 03:53:24;;;;;;;12.15;6.55;;;;;;;10.41;75.14;97821.20;1699566;81;25760;-85
2022/09/06 03:55:53;;;;;;;17.62;6.33;;;;;;;10.45;75.22;97821.13;1742899;80;25801;-84
2022/09/06 03:58:22;;;;;;;10.70;6.28;;;;;;;10.48;75.23;97822.60;1712782;83;27424;-85
2022/09/06 04:00:49;;;;;;;10.58;6.85;;;;;;;10.51;75.17;97826.74;1741550;81;25738;-85
2022/09/06 04:03:18;;;;;;;10.65;6.47;;;;;;;10.51;75.23;97828.92;1741396;81;25690;-85
2022/09/06 04:05:45;;;;;;;9.85;6.53;;;;;;;10.51;75.22;97825.39;1743313;82;26072;-86
2022/09/06 04:08:12;;;;;;;9.13;6.62;;;;;;;10.52;75.33;97818.45;1741708;82;25232;-85
2022/09/06 04:10:38;;;;;;;9.05;6.67;;;;;;;10.55;75.37;97821.27;1741718;81;27344;-86
2022/09/06 04:13:05;;;;;;;9.88;6.50;;;;;;;10.56;75.36;97811.63;1743379;82;25271;-86
2022/09/06 04:15:31;;;;;;;9.35;6.37;;;;;;;10.58;75.32;97812.27;1742049;81;25719;-86
2022/09/06 04:17:58;;;;;;;10.98;6.58;;;;;;;10.61;75.42;97805.63;1710703;83;26441;-86
2022/09/06 04:20:24;;;;;;;8.15;6.28;;;;;;;10.63;75.48;97810.28;1713070;83;26421;-86
2022/09/06 04:22:52;;;;;;;10.32;7.17;;;;;;;10.64;75.44;97807.39;1739130;80;27979;-86
2022/09/06 04:25:18;;;;;;;12.88;7.03;;;;;;;10.67;75.44;97810.21;1732838;82;25731;-86
2022/09/06 04:27:45;;;;;;;11.95;6.78;;;;;;;10.68;75.37;97810.53;1720426;82;25690;-86
2022/09/06 04:30:11;;;;;;;10.38;6.30;;;;;;;10.69;75.43;97811.68;1685346;84;25723;-85
2022/09/06 04:32:38;;;;;;;9.75;7.30;;;;;;;10.70;75.50;97809.30;1708168;83;25216;-85
2022/09/06 04:35:06;;;;;;;11.00;7.10;;;;;;;10.71;75.59;97808.78;1701220;83;27374;-85
2022/09/06 04:37:32;;;;;;;10.25;6.70;;;;;;;10.75;75.59;97812.20;1710159;83;25806;-85
2022/09/06 04:39:59;;;;;;;10.82;6.80;;;;;;;10.79;75.72;97809.94;1700775;83;25737;-86
2022/09/06 04:42:25;;;;;;;10.20;7.05;;;;;;;10.82;75.71;97810.89;1673534;84;25671;-85
2022/09/06 04:44:52;;;;;;;11.00;7.40;;;;;;;10.85;75.75;97810.50;1700797;83;25804;-86
2022/09/06 04:47:18;;;;;;;11.90;8.10;;;;;;;10.88;75.67;97812.77;1668981;84;27338;-85
2022/09/06 04:49:48;;;;;;;14.93;8.80;;;;;;;10.92;75.63;97805.94;1700139;83;25860;-86
2022/09/06 04:52:14;;;;;;;13.18;8.53;;;;;;;10.96;75.57;97809.90;1677678;83;25976;-86
2022/09/06 04:54:41;;;;;;;15.08;8.90;;;;;;;10.99;75.63;97802.72;1695054;83;25751;-86
2022/09/06 04:57:07;;;;;;;13.88;9.25;;;;;;;11.03;75.63;97810.73;1715990;83;25858;-85
2022/09/06 04:59:34;;;;;;;15.90;9.10;;;;;;;11.05;75.61;97807.32;1716066;83;28162;-86
2022/09/06 05:02:01;;;;;;;14.18;8.85;;;;;;;11.09;75.71;97813.98;1724071;83;25738;-86
2022/09/06 05:04:27;;;;;;;15.48;9.28;;;;;;;11.13;75.76;97810.34;1714126;83;25835;-86
2022/09/06 05:07:03;;;;;;;14.98;9.28;;;;;;;11.16;75.73;97808.06;1645461;84;25709;-86
2022/09/06 05:09:31;;;;;;;17.27;8.65;;;;;;;11.19;75.90;97804.96;1670104;83;25795;-85
2022/09/06 05:11:58;;;;;;;14.10;8.43;;;;;;;11.18;75.61;97807.86;1678823;84;27498;-86
2022/09/06 05:14:26;;;;;;;13.60;8.35;;;;;;;11.21;75.58;97807.98;1675379;84;25727;-85
2022/09/06 05:16:53;;;;;;;15.83;8.90;;;;;;;11.23;75.51;97809.41;1696908;84;25722;-85
2022/09/06 05:19:20;;;;;;;15.80;9.23;;;;;;;11.27;75.59;97807.97;1700203;82;26523;-85
2022/09/06 05:21:46;;;;;;;15.20;9.15;;;;;;;11.33;75.58;97810.39;1683142;83;25701;-85
2022/09/06 05:24:13;;;;;;;19.05;9.88;;;;;;;11.39;75.51;97807.67;1715778;82;27437;-85
2022/09/06 05:26:40;;;;;;;15.60;9.08;;;;;;;11.42;75.56;97809.14;1715707;82;25727;-86
2022/09/06 05:29:06;;;;;;;17.27;8.78;;;;;;;11.44;75.58;97812.47;1703419;82;25736;-85
2022/09/06 05:31:34;;;;;;;14.83;9.15;;;;;;;11.45;75.69;97812.79;1689366;82;25862;-86
2022/09/06 05:34:01;;;;;;;12.40;8.78;;;;;;;11.49;75.79;97818.07;1725696;82;25750;-86
2022/09/06 05:36:29;;;;;;;16.25;8.93;;;;;;;11.54;75.77;97816.95;1734937;82;27415;-86
2022/09/06 05:38:57;;;;;;;14.75;8.05;;;;;;;11.62;75.65;97817.25;1696802;82;25524;-86
2022/09/06 05:41:24;;;;;;;13.70;8.03;;;;;;;11.68;75.42;97821.32;1719059;82;25768;-87
2022/09/06 05:43:51;;;;;;;14.13;8.48;;;;;;;11.72;75.31;97823.90;1739284;82;25693;-86
2022/09/06 05:46:18;;;;;;;10.93;8.05;;;;;;;11.77;75.47;97821.45;1717658;82;25729;-87
2022/09/06 05:48:53;;;;;;;16.45;8.08;;;;;;;11.83;75.45;97821.15;1727445;82;27374;-87
2022/09/06 05:51:20;;;;;;;14.33;8.45;;;;;;;11.88;75.47;97822.16;1739889;81;25695;-86
2022/09/06 05:53:47;;;;;;;18.02;8.68;;;;;;;11.94;75.58;97819.67;1692562;82;26319;-87
2022/09/06 05:56:14;;;;;;;15.53;9.33;;;;;;;11.95;75.40;97818.12;1709564;82;25702;-86
2022/09/06 05:58:41;;;;;;;13.48;8.85;;;;;;;12.04;75.35;97824.13;1721915;83;25670;-85
2022/09/06 06:01:17;;;;;;;13.83;8.65;;;;;;;12.11;75.19;97823.06;1739216;82;28160;-86
2022/09/06 06:03:57;;;;;;;16.50;8.33;;;;;;;12.19;75.02;97824.73;1702538;83;25823;-85
2022/09/06 06:06:26;;;;;;;11.00;7.95;;;;;;;12.23;74.83;97822.73;1706382;83;25865;-84
2022/09/06 06:08:53;;;;;;;12.82;8.28;;;;;;;12.29;74.69;97818.88;1687802;82;26556;-85
2022/09/06 06:11:20;;;;;;;10.55;7.60;;;;;;;12.29;74.68;97819.72;1691512;83;25744;-85
2022/09/06 06:13:46;;;;;;;12.95;8.00;;;;;;;12.36;74.76;97825.09;1718463;82;27458;-85
2022/09/06 06:16:16;;;;;;;11.60;8.03;;;;;;;12.42;74.55;97816.14;1739530;82;25715;-85
2022/09/06 06:18:46;;;;;;;12.93;7.35;;;;;;;12.45;74.35;97815.17;1713200;83;25263;-83
2022/09/06 06:21:20;;;;;;;13.65;7.72;;;;;;;12.53;74.22;97813.60;1739300;82;26320;-85
2022/09/06 06:23:50;;;;;;;13.32;7.37;;;;;;;12.60;74.10;97817.11;1705238;83;25811;-86
2022/09/06 06:26:18;;;;;;;16.10;7.47;;;;;;;12.68;74.18;97815.22;1684626;83;27456;-87
2022/09/06 06:28:45;;;;;;;55.12;36.65;;;;;;;12.70;74.05;97815.29;1696224;83;25698;-87
2022/09/06 06:31:12;;;;;;;8.13;7.20;;;;;;;12.78;73.96;97809.65;1709665;82;26506;-86
2022/09/06 06:33:38;;;;;;;13.70;7.53;;;;;;;12.85;73.81;97820.44;1746498;81;25775;-87
2022/09/06 06:36:13;;;;;;;11.57;7.33;;;;;;;12.87;73.63;97819.70;1737236;81;25720;-86
2022/09/06 06:38:42;;;;;;;15.32;7.92;;;;;;;12.93;73.71;97816.12;1732585;81;27397;-85
2022/09/06 06:41:12;;;;;;;15.88;8.55;;;;;;;12.99;73.59;97801.72;1714134;83;26264;-86
2022/09/06 06:43:39;;;;;;;12.73;8.08;;;;;;;13.07;73.81;97800.09;1719997;83;25707;-87
2022/09/06 06:46:14;;;;;;;13.03;8.38;;;;;;;13.14;73.74;97806.36;1720416;82;25824;-86
2022/09/06 06:48:43;;;;;;;11.40;7.28;;;;;;;13.24;73.69;97805.87;1721510;82;25496;-86
2022/09/06 06:51:13;;;;;;;9.90;7.67;;;;;;;13.33;73.37;97811.34;1717844;82;28108;-87
2022/09/06 06:53:40;;;;;;;13.40;7.40;;;;;;;13.36;73.09;97808.20;1701390;81;25905;-86
2022/09/06 06:56:16;;;;;;;11.73;7.97;;;;;;;13.45;73.12;97808.75;1744762;82;25663;-86
2022/09/06 06:58:43;;;;;;;11.57;7.58;;;;;;;13.54;73.01;97802.00;1732843;82;25753;-86
2022/09/06 07:01:10;;;;;;;13.53;7.45;;;;;;;13.62;72.88;97807.17;1732780;82;25771;-86
2022/09/06 07:03:37;;;;;;;14.00;7.90;;;;;;;13.71;72.79;97808.55;1728778;82;27366;-86
2022/09/06 07:06:04;;;;;;;12.82;7.95;;;;;;;13.79;72.46;97805.55;1718456;82;25798;-87
2022/09/06 07:08:31;;;;;;;12.75;7.03;;;;;;;13.87;72.30;97803.94;1732758;82;25857;-86
2022/09/06 07:10:58;;;;;;;17.57;7.65;;;;;;;13.99;72.19;97807.58;1732752;82;25643;-87
2022/09/06 07:13:25;;;;;;;12.18;6.95;;;;;;;14.08;71.80;97805.92;1733020;82;25248;-87
2022/09/06 07:16:09;;;;;;;13.48;6.72;;;;;;;14.17;71.50;97804.57;1733456;82;27344;-86
2022/09/06 07:18:40;;;;;;;9.80;6.92;;;;;;;14.31;71.38;97808.81;1713021;82;25669;-87
2022/09/06 07:21:04;;;;;;;13.20;7.10;;;;;;;14.46;70.99;97812.03;1722288;82;25775;-88
2022/09/06 07:23:30;;;;;;;12.13;7.28;;;;;;;14.58;70.85;97812.94;1732524;81;25735;-88
2022/09/06 07:25:57;;;;;;;10.70;6.58;;;;;;;14.69;70.58;97809.45;1679780;83;25820;-88
2022/09/06 07:28:24;;;;;;;12.25;6.67;;;;;;;14.80;70.44;97801.59;1703873;83;27425;-88
2022/09/06 07:30:53;;;;;;;9.63;6.83;;;;;;;14.95;70.04;97814.27;1730616;82;25746;-88
2022/09/06 07:33:20;;;;;;;10.90;7.12;;;;;;;15.05;70.34;97811.82;1729718;82;25653;-88
2022/09/06 07:35:59;;;;;;;10.95;6.75;;;;;;;15.23;70.53;97800.88;1725649;83;25669;-88
2022/09/06 07:38:27;;;;;;;9.63;5.83;;;;;;;15.38;70.22;97805.90;1705431;82;25743;-87
2022/09/06 07:40:58;;;;;;;11.30;6.62;;;;;;;15.67;69.81;97811.04;1692224;83;28290;-87
2022/09/06 07:43:26;;;;;;;13.35;6.25;;;;;;;15.91;69.21;97811.38;1707878;83;25691;-87
2022/09/06 07:46:02;;;;;;;10.53;6.03;;;;;;;16.11;68.81;97812.38;1725536;83;25744;-87
2022/09/06 07:48:34;;;;;;;10.45;6.42;;;;;;;16.32;68.47;97814.50;1725258;83;25841;-88
2022/09/06 07:51:17;;;;;;;;;;;;;;;16.53;68.47;97811.17;1727762;83;25780;-88
2022/09/06 07:53:51;;;;;;;11.18;6.55;;;;;;;16.80;67.76;97816.11;1684338;83;28254;-87
2022/09/06 07:56:21;;;;;;;8.78;6.10;;;;;;;17.10;67.42;97809.09;1725480;83;25652;-85
2022/09/06 07:58:49;;;;;;;10.08;6.97;;;;;;;17.37;67.32;97806.08;1725508;83;25735;-86
2022/09/06 08:01:33;;;;;;;13.30;7.55;;;;;;;17.76;66.80;97806.21;1699914;83;26333;-87
2022/09/06 08:04:06;;;;;;;12.28;7.67;;;;;;;18.03;66.00;97801.75;1719215;82;25855;-85
2022/09/06 08:06:36;;;;;;;11.88;7.53;;;;;;;18.39;65.45;97803.65;1702765;83;27382;-86
2022/09/06 08:09:06;;;;;;;11.63;7.80;;;;;;;18.59;65.09;97801.25;1694771;84;25742;-87
2022/09/06 08:11:34;;;;;;;11.57;7.55;;;;;;;18.71;64.36;97792.39;1725472;83;26102;-87
2022/09/06 08:14:04;;;;;;;17.45;8.35;;;;;;;18.70;63.79;97794.30;1692271;84;26538;-87
2022/09/06 08:16:33;;;;;;;14.05;8.20;;;;;;;18.78;63.95;97789.45;1671778;84;25747;-85
2022/09/06 08:19:07;;;;;;;18.82;9.10;;;;;;;18.86;63.54;97789.82;1694312;82;27366;-85
2022/09/06 08:21:34;;;;;;;13.10;7.55;;;;;;;18.94;63.25;97786.66;1716161;83;25772;-85
2022/09/06 08:24:04;;;;;;;11.65;7.67;;;;;;;19.01;63.24;97780.98;1696033;83;26265;-85
2022/09/06 08:26:33;;;;;;;12.13;7.90;;;;;;;19.07;63.08;97774.50;1710164;83;25728;-86
2022/09/06 08:29:04;;;;;;;10.75;7.67;;;;;;;19.14;62.91;97777.84;1697406;83;26347;-86
2022/09/06 08:31:36;;;;;;;9.55;7.05;;;;;;;19.17;62.48;97775.97;1715792;82;26651;-86
2022/09/06 08:34:03;;;;;;;12.60;7.62;;;;;;;19.18;62.66;97771.33;1716959;82;25733;-86
2022/09/06 08:36:30;;;;;;;11.93;7.37;;;;;;;19.26;62.54;97766.75;1732728;82;25748;-85
2022/09/06 08:38:59;;;;;;;10.70;7.62;;;;;;;19.40;62.46;97763.34;1714997;82;25745;-86
2022/09/06 08:41:40;;;;;;;13.32;7.17;;;;;;;19.46;62.02;97764.74;1722778;81;25752;-85
2022/09/06 08:44:14;;;;;;;10.68;6.95;;;;;;;19.46;62.00;97768.31;1748172;81;28175;-86
2022/09/06 08:46:58;;;;;;;11.53;6.85;;;;;;;19.48;62.09;97768.05;1748724;81;25658;-85
2022/09/06 08:49:29;;;;;;;16.23;7.33;;;;;;;19.50;61.76;97770.02;1748754;81;25682;-85
2022/09/06 08:52:13;;;;;;;10.40;6.37;;;;;;;19.49;61.57;97769.20;1735480;81;25697;-85
2022/09/06 08:55:25;;;;;;;9.63;5.78;;;;;;;19.50;61.76;97758.53;1721404;81;25707;-85
2022/09/06 08:58:09;;;;;;;11.15;5.83;;;;;;;19.54;61.30;97758.31;1722302;81;27357;-86
2022/09/06 09:00:37;;;;;;;9.23;6.33;;;;;;;19.69;61.02;97754.31;1748335;81;25760;-86
2022/09/06 09:03:13;;;;;;;12.20;6.72;;;;;;;19.85;60.89;97759.91;1728039;81;25808;-89
2022/09/06 09:05:42;;;;;;;11.80;6.47;;;;;;;19.96;60.75;97757.53;1715331;83;25719;-85
2022/09/06 09:08:38;;;;;;;12.53;5.15;;;;;;;20.03;60.46;97752.67;1709598;83;25945;-85
2022/09/06 09:11:10;;;;;;;9.65;6.10;;;;;;;20.07;60.15;97759.25;1690511;83;27488;-87
2022/09/06 09:14:00;;;;;;;9.30;6.05;;;;;;;20.09;60.05;97748.86;1706549;82;26616;-87
2022/09/06 09:16:27;;;;;;;6.60;5.22;;;;;;;20.10;59.64;97749.14;1737729;82;25824;-87
2022/09/06 09:19:01;;;;;;;9.18;5.45;;;;;;;20.10;59.23;97742.30;1744948;81;26333;-86
2022/09/06 09:21:33;;;;;;;9.48;6.08;;;;;;;20.12;59.29;97740.95;1745686;81;25848;-87
2022/09/06 09:24:07;;;;;;;10.25;6.15;;;;;;;20.17;59.01;97733.28;1695550;81;27457;-87
2022/09/06 09:26:58;;;;;;;8.10;5.35;;;;;;;20.25;58.76;97747.05;1717259;82;26912;-87
2022/09/06 09:29:25;;;;;;;7.40;5.70;;;;;;;20.29;58.09;97734.45;1744651;81;25654;-86
2022/09/06 09:31:55;;;;;;;7.55;5.62;;;;;;;20.31;58.32;97734.47;1719189;82;25774;-87
2022/09/06 09:34:38;;;;;;;8.10;5.65;;;;;;;20.32;57.71;97733.92;1739558;81;25664;-87
2022/09/06 09:37:26;;;;;;;9.80;6.50;;;;;;;20.46;57.79;97729.10;1732840;82;28266;-87
2022/09/06 09:39:55;;;;;;;8.05;5.37;;;;;;;20.78;57.87;97733.07;1732449;82;25760;-88
2022/09/06 09:42:27;;;;;;;6.78;5.03;;;;;;;21.05;57.38;97731.52;1712994;82;25762;-86
2022/09/06 09:44:55;;;;;;;11.53;5.37;;;;;;;21.23;57.41;97723.91;1712860;82;25898;-88
2022/09/06 09:47:29;;;;;;;9.35;5.78;;;;;;;21.31;56.49;97724.19;1732747;82;25815;-88
2022/09/06 09:49:57;;;;;;;9.98;4.95;;;;;;;21.31;55.58;97720.07;1704158;82;28082;-88
2022/09/06 09:52:28;;;;;;;7.53;4.85;;;;;;;21.31;55.58;97720.07;1712591;81;25776;-89
2022/09/06 09:55:04;;;;;;;8.43;4.87;;;;;;;21.32;56.18;97711.28;1732885;81;25982;-88
2022/09/06 09:57:35;;;;;;;7.42;5.30;;;;;;;21.37;55.79;97715.42;1746235;81;25737;-89
2022/09/06 10:00:07;;;;;;;10.50;5.25;;;;;;;21.35;55.79;97709.38;1742483;81;25670;-86
2022/09/06 10:02:37;;;;;;;10.25;5.62;;;;;;;21.39;55.67;97714.03;1728169;82;27390;-91
2022/09/06 10:05:15;;;;;;;6.85;4.97;;;;;;;21.43;55.05;97708.83;1733906;82;25736;-87
2022/09/06 10:07:49;;;;;;;8.65;5.65;;;;;;;21.45;54.89;97706.63;1729158;82;26017;-90
2022/09/06 10:10:29;;;;;;;7.12;4.97;;;;;;;21.50;55.21;97714.86;1711569;82;26771;-88
2022/09/06 10:13:21;;;;;;;12.68;5.25;;;;;;;21.48;54.58;97706.92;1741546;82;25696;-88
2022/09/06 10:15:50;;;;;;;8.90;4.75;;;;;;;21.40;54.60;97703.88;1708294;82;27962;-88
2022/09/06 10:18:36;;;;;;;10.38;4.83;;;;;;;21.35;54.69;97704.71;1722129;83;25798;-88
2022/09/06 10:21:17;;;;;;;6.85;5.10;;;;;;;21.33;54.69;97701.41;1723334;81;25801;-87
2022/09/06 10:24:01;;;;;;;8.18;4.22;;;;;;;21.26;54.37;97695.89;1703800;82;26393;-87
2022/09/06 10:26:42;;;;;;;6.80;4.30;;;;;;;21.19;54.06;97689.30;1702411;82;25777;-86
2022/09/06 10:29:08;;;;;;;8.00;4.35;;;;;;;21.14;54.18;97693.38;1748678;81;27373;-86
2022/09/06 10:32:02;;;;;;;7.62;4.85;;;;;;;21.06;54.67;97685.14;1748908;81;25738;-87
2022/09/06 10:35:04;;;;;;;8.58;4.70;;;;;;;20.99;54.45;97682.39;1736204;81;25776;-87
2022/09/06 10:37:57;;;;;;;9.40;4.80;;;;;;;20.72;54.01;97663.38;1722262;81;27488;-87
2022/09/06 10:40:33;;;;;;;9.08;4.42;;;;;;;20.72;54.09;97679.84;1727885;82;25969;-87
2022/09/06 10:43:02;;;;;;;10.85;4.25;;;;;;;20.63;54.05;97685.58;1746228;81;27416;-87
2022/09/06 10:45:52;;;;;;;5.05;4.25;;;;;;;20.56;53.92;97683.61;1748561;80;25763;-89
2022/09/06 10:48:41;;;;;;;6.65;4.45;;;;;;;20.46;53.97;97682.48;1748031;80;25825;-89
2022/09/06 10:51:34;;;;;;;10.03;4.92;;;;;;;20.39;54.12;97681.09;1748637;81;25928;-87
2022/09/06 10:54:06;;;;;;;8.63;4.55;;;;;;;20.23;53.88;97685.64;1708823;81;25767;-86
2022/09/06 10:57:07;;;;;;;7.30;4.40;;;;;;;20.23;53.88;97685.64;1741925;81;33750;-87
2022/09/06 10:59:50;;;;;;;6.58;4.20;;;;;;;20.21;54.14;97682.88;1735407;82;25688;-87
2022/09/06 11:02:42;;;;;;;9.60;4.42;;;;;;;20.20;54.29;97683.97;1704479;82;25799;-87
2022/09/06 11:05:24;;;;;;;6.85;4.17;;;;;;;20.17;54.61;97681.20;1747096;82;26505;-87
2022/09/06 11:08:02;;;;;;;6.08;4.37;;;;;;;20.06;55.08;97656.22;1716055;83;25252;-87
2022/09/06 11:10:33;;;;;;;7.08;4.17;;;;;;;20.06;55.08;97656.22;1746917;81;27377;-88
2022/09/06 11:13:14;;;;;;;6.58;4.37;;;;;;;20.25;54.72;97677.16;1749108;81;26076;-87
2022/09/06 11:16:08;;;;;;;6.35;3.90;;;;;;;20.32;54.70;97668.95;1740724;82;25730;-88
2022/09/06 11:18:49;;;;;;;6.92;3.80;;;;;;;20.38;54.45;97669.84;1672216;83;25687;-89
2022/09/06 11:21:24;;;;;;;8.28;4.33;;;;;;;20.43;54.13;97666.56;1678425;83;25288;-88
2022/09/06 11:24:13;;;;;;;5.72;4.47;;;;;;;20.51;53.99;97669.36;1718010;83;27468;-88
2022/09/06 11:27:05;;;;;;;7.17;3.95;;;;;;;20.73;54.13;97660.92;1674300;84;25849;-86
2022/09/06 11:29:34;;;;;;;6.22;4.53;;;;;;;20.73;54.13;97660.92;1686053;83;25774;-89
2022/09/06 11:32:04;;;;;;;8.25;4.12;;;;;;;20.89;53.76;97633.78;1705175;83;26629;-87
2022/09/06 11:34:33;;;;;;;5.70;4.17;;;;;;;20.89;53.76;97633.78;1651451;83;25944;-90
2022/09/06 11:37:09;;;;;;;5.78;4.05;;;;;;;21.15;53.77;97657.97;1716315;83;28188;-86
2022/09/06 11:39:42;;;;;;;7.12;4.60;;;;;;;21.24;53.59;97658.30;1717616;83;25781;-87
2022/09/06 11:42:19;;;;;;;10.20;4.65;;;;;;;21.26;53.36;97635.49;1699662;83;25269;-87
2022/09/06 11:45:08;;;;;;;10.15;4.28;;;;;;;21.26;53.36;97635.49;1714046;81;25916;-88
2022/09/06 11:47:51;;;;;;;9.45;4.42;;;;;;;21.50;53.31;97653.06;1614126;86;25749;-87
2022/09/06 11:50:23;;;;;;;;;;;;;;;21.59;53.00;97639.07;1616540;88;28078;-87
2022/09/06 11:53:07;;;;;;;10.53;4.25;;;;;;;21.64;52.15;97644.55;1620021;87;26484;-87
2022/09/06 11:55:40;;;;;;;6.15;4.67;;;;;;;21.71;52.66;97644.28;1629477;86;25765;-86